Time;durP1;ratioP1;P1;durP2;ratioP2;P2;SDS_P1;SDS_P2;PMS_P1;PMS_P2;Temp;Humidity;BMP_temperature;BMP_pressure;BME280_temperature;BME280_humidity;BME280_pressure;Samples;Min_cycle;Max_cycle;Signal;HPM_P1;HPM_P2
2022/04/25 00:00:37;;;;;;;1.65;1.00;;;;;;;;;;4879300;28;20043;-35
2022/04/25 00:03:03;;;;;;;1.20;0.88;;;;;;;;;;4874641;28;20041;-31
2022/04/25 00:05:28;;;;;;;1.38;0.80;;;;;;;;;;4878405;28;20714;-35
2022/04/25 00:07:53;;;;;;;1.17;0.80;;;;;;;;;;4879108;28;20154;-33
2022/04/25 00:10:19;;;;;;;1.63;0.90;;;;;;;-148.56;27.47;61375.16;4879018;28;20228;-33
2022/04/25 00:12:44;;;;;;;0.85;0.70;;;;;;;-148.56;29.95;95039.75;4879136;28;20868;-33
2022/04/25 00:15:11;;;;;;;3.30;0.82;;;;;;;;;;4877779;28;20043;-31
2022/04/25 00:17:36;;;;;;;1.75;0.93;;;;;;;26.75;29.95;95039.75;4887248;28;20043;-32
2022/04/25 00:20:02;;;;;;;1.15;0.77;;;;;;;;;;4919867;28;20467;-31
2022/04/25 00:22:27;;;;;;;1.33;0.70;;;;;;;-148.56;29.95;69680.19;4918392;28;20494;-30
2022/04/25 00:24:53;;;;;;;1.90;0.80;;;;;;;26.75;29.95;95039.75;4920038;28;20055;-31
2022/04/25 00:27:18;;;;;;;2.35;0.98;;;;;;;26.75;29.95;95039.75;4921998;28;20039;-31
2022/04/25 00:29:43;;;;;;;0.85;0.82;;;;;;;-148.56;29.95;69680.19;4937341;28;20039;-31
2022/04/25 00:32:09;;;;;;;1.60;0.80;;;;;;;-148.56;30.42;61375.16;4925373;28;20035;-31
2022/04/25 00:34:35;;;;;;;1.60;0.70;;;;;;;26.75;29.95;95039.75;4923723;28;20446;-33
2022/04/25 00:37:01;;;;;;;1.45;0.90;;;;;;;-148.56;29.95;95039.75;4926104;28;20031;-31
2022/04/25 00:39:27;;;;;;;0.50;0.50;;;;;;;26.75;29.95;95039.75;4926471;28;20581;-32
2022/04/25 00:41:52;;;;;;;1.08;0.77;;;;;;;-148.56;29.95;69680.19;4928617;28;20035;-30
2022/04/25 00:44:18;;;;;;;2.67;0.80;;;;;;;-148.56;29.95;95039.75;4928264;28;20090;-30
2022/04/25 00:46:43;;;;;;;1.42;0.93;;;;;;;-148.56;29.95;69680.19;4931173;28;20623;-34
2022/04/25 00:49:08;;;;;;;1.00;0.70;;;;;;;;;;4931671;28;21692;-30
2022/04/25 00:51:34;;;;;;;1.52;1.00;;;;;;;-148.56;100.00;61375.16;4932021;28;20042;-31
2022/04/25 00:53:59;;;;;;;0.95;0.65;;;;;;;-148.56;100.00;61375.16;4933681;28;20039;-33
2022/04/25 00:56:25;;;;;;;1.25;0.90;;;;;;;-148.56;27.47;61375.16;4933020;28;20028;-31
2022/04/25 00:58:51;;;;;;;1.42;0.90;;;;;;;-148.56;100.00;61375.16;4932964;28;20037;-32
2022/04/25 01:01:16;;;;;;;1.13;0.90;;;;;;;;;;4932063;28;20024;-32
2022/04/25 01:03:41;;;;;;;1.83;0.80;;;;;;;;;;4935588;28;20098;-30
2022/04/25 01:06:07;;;;;;;1.70;1.00;;;;;;;-148.56;27.47;113866.56;4933400;28;20071;-32
2022/04/25 01:08:34;;;;;;;4.30;0.98;;;;;;;-148.56;nan;61375.16;4932938;28;20035;-30
2022/04/25 01:11:04;;;;;;;2.70;0.80;;;;;;;-148.56;27.47;61375.16;4929844;28;20031;-32
2022/04/25 01:13:29;;;;;;;1.67;0.82;;;;;;;-148.56;100.00;61375.16;4942514;28;20046;-32
2022/04/25 01:15:55;;;;;;;1.17;0.80;;;;;;;;;;4923816;28;20044;-31
2022/04/25 01:18:20;;;;;;;2.00;1.05;;;;;;;;;;4923653;28;21184;-30
2022/04/25 01:20:45;;;;;;;0.93;0.70;;;;;;;;;;4924465;28;20031;-32
2022/04/25 01:28:39;;;;;;;2.17;1.27;;;;;;;26.75;29.95;95039.75;4924000;28;20222;-32
2022/04/25 01:31:04;;;;;;;0.82;0.68;;;;;;;-148.56;29.95;95039.75;4920959;28;20034;-31
2022/04/25 01:33:29;;;;;;;2.58;0.80;;;;;;;;;;4920335;28;20114;-31
2022/04/25 01:35:55;;;;;;;2.55;0.80;;;;;;;-148.56;29.95;69680.19;4923322;28;20035;-33
2022/04/25 01:38:21;;;;;;;1.23;0.80;;;;;;;26.75;29.95;95039.75;4921956;28;20035;-32
2022/04/25 01:40:46;;;;;;;2.55;0.90;;;;;;;;;;4923042;28;20488;-34
2022/04/25 01:43:11;;;;;;;0.80;0.70;;;;;;;26.75;29.95;95039.75;4925089;28;20453;-29
2022/04/25 01:45:39;;;;;;;1.00;0.90;;;;;;;-148.56;29.95;95039.75;4923265;28;20035;-30
2022/04/25 01:48:05;;;;;;;1.00;0.75;;;;;;;26.75;29.95;95039.75;4919970;28;20046;-30
2022/04/25 01:50:30;;;;;;;1.30;0.85;;;;;;;26.75;29.95;95039.75;4917858;28;20570;-30
2022/04/25 01:52:56;;;;;;;1.95;1.00;;;;;;;26.75;29.95;95039.75;4923231;28;20501;-35
2022/04/25 01:55:21;;;;;;;1.80;0.75;;;;;;;26.75;29.95;95039.75;4921765;28;21046;-32
2022/04/25 01:57:46;;;;;;;1.27;1.00;;;;;;;-148.56;29.95;95039.75;4919788;28;20035;-32
2022/04/25 02:00:12;;;;;;;0.70;0.70;;;;;;;;;;4923758;28;20023;-31
2022/04/25 02:02:37;;;;;;;1.80;0.80;;;;;;;-148.56;29.95;69680.19;4925143;28;20051;-31
2022/04/25 02:05:04;;;;;;;1.00;0.85;;;;;;;26.75;29.95;95039.75;4923656;28;20035;-35
2022/04/25 02:07:29;;;;;;;1.02;0.90;;;;;;;26.75;29.95;95039.75;4920576;28;20035;-31
2022/04/25 02:09:54;;;;;;;0.65;0.65;;;;;;;26.75;29.95;89747.53;4923963;28;20047;-30
2022/04/25 02:12:21;;;;;;;0.65;0.63;;;;;;;26.75;29.95;95039.75;4923965;28;20024;-32
2022/04/25 02:14:46;;;;;;;1.55;0.75;;;;;;;26.75;29.95;95039.75;4921724;28;20019;-32
2022/04/25 02:17:13;;;;;;;1.70;0.90;;;;;;;26.75;29.95;95039.75;4918574;28;20038;-32
2022/04/25 02:19:38;;;;;;;2.17;1.05;;;;;;;26.75;29.95;95039.75;4923150;28;20055;-30
2022/04/25 02:22:06;;;;;;;0.90;0.60;;;;;;;26.75;29.95;95039.75;4923613;28;20031;-30
2022/04/25 02:24:31;;;;;;;2.67;0.82;;;;;;;26.75;29.95;95039.75;4920698;28;21301;-31
2022/04/25 02:26:57;;;;;;;1.10;0.90;;;;;;;26.75;29.95;95039.75;4921461;28;20031;-31
2022/04/25 02:29:22;;;;;;;1.35;0.77;;;;;;;26.75;29.95;95039.75;4921398;28;20035;-31
2022/04/25 02:31:48;;;;;;;1.27;0.80;;;;;;;26.75;29.95;95039.75;4921891;28;20406;-34
2022/04/25 02:34:13;;;;;;;0.95;0.90;;;;;;;26.75;29.95;95039.75;4921949;28;20031;-32
2022/04/25 02:36:39;;;;;;;1.92;0.82;;;;;;;-148.56;29.95;95039.75;4922169;28;20032;-32
2022/04/25 02:39:04;;;;;;;1.02;0.80;;;;;;;;;;4920759;28;20039;-32
2022/04/25 02:41:29;;;;;;;1.75;0.90;;;;;;;26.75;29.95;95039.75;4923819;28;20040;-31
2022/04/25 02:43:55;;;;;;;0.70;0.70;;;;;;;-100.71;29.95;95039.75;4922294;28;20066;-29
2022/04/25 02:46:20;;;;;;;1.00;0.88;;;;;;;-148.56;29.95;95039.75;4922373;28;20042;-36
2022/04/25 02:48:46;;;;;;;1.55;0.77;;;;;;;26.75;29.95;95039.75;4920272;28;20039;-36
2022/04/25 02:51:12;;;;;;;1.00;0.88;;;;;;;-148.56;29.95;95039.75;4919601;28;20527;-29
2022/04/25 02:53:38;;;;;;;0.70;0.70;;;;;;;26.75;29.95;95039.75;4919591;28;20945;-32
2022/04/25 02:56:04;;;;;;;0.90;0.77;;;;;;;26.75;29.95;95039.75;4923521;28;20068;-28
2022/04/25 02:58:30;;;;;;;1.70;0.98;;;;;;;26.75;29.95;95039.75;4919751;28;20035;-32
2022/04/25 03:00:55;;;;;;;0.70;0.68;;;;;;;26.75;29.95;95039.75;4923581;28;20482;-31
2022/04/25 03:03:21;;;;;;;1.08;0.77;;;;;;;26.75;29.95;95039.75;4921687;28;20134;-29
2022/04/25 03:05:47;;;;;;;1.55;0.75;;;;;;;26.75;29.95;95039.75;4922423;28;20031;-31
2022/04/25 03:08:14;;;;;;;0.70;0.68;;;;;;;26.75;29.95;95039.75;4922473;28;20031;-30
2022/04/25 03:10:40;;;;;;;1.30;0.75;;;;;;;-148.56;29.95;95039.75;4919455;28;20139;-30
2022/04/25 03:13:08;;;;;;;0.95;0.70;;;;;;;26.75;29.95;95039.75;4921420;28;20126;-28
2022/04/25 03:15:34;;;;;;;1.40;0.70;;;;;;;26.75;29.95;95039.75;4918441;28;20046;-29
2022/04/25 03:18:00;;;;;;;1.75;0.75;;;;;;;-148.56;29.95;95039.75;4917892;28;20431;-31
2022/04/25 03:20:26;;;;;;;0.70;0.70;;;;;;;;;;4922530;28;20023;-31
2022/04/25 03:22:51;;;;;;;0.98;0.80;;;;;;;26.75;29.95;95039.75;4922882;28;20546;-31
2022/04/25 03:25:17;;;;;;;1.20;0.80;;;;;;;26.75;29.95;95039.75;4920976;28;20047;-31
2022/04/25 03:27:42;;;;;;;0.68;0.68;;;;;;;-148.56;29.95;95039.75;4922253;28;20038;-31
2022/04/25 03:30:08;;;;;;;0.73;0.73;;;;;;;26.75;29.95;95039.75;4918224;28;21129;-32
2022/04/25 03:32:34;;;;;;;2.70;2.20;;;;;;;26.75;29.95;95039.75;4918322;28;21095;-30
2022/04/25 03:34:59;;;;;;;1.98;1.30;;;;;;;-148.56;29.95;95039.75;4921116;28;20027;-33
2022/04/25 03:37:26;;;;;;;1.17;0.90;;;;;;;26.75;29.95;95039.75;4922369;28;20154;-30
2022/04/25 03:39:51;;;;;;;1.63;1.10;;;;;;;26.75;29.95;95039.75;4919548;28;20054;-31
2022/04/25 03:42:16;;;;;;;2.58;1.00;;;;;;;-148.56;29.95;95039.75;4922248;28;20484;-28
2022/04/25 03:44:42;;;;;;;1.20;1.08;;;;;;;26.75;29.95;95039.75;4923865;28;20059;-30
2022/04/25 03:47:07;;;;;;;2.67;1.00;;;;;;;26.75;29.95;95039.75;4924139;28;20063;-32
2022/04/25 03:49:34;;;;;;;1.15;1.00;;;;;;;26.75;29.95;95039.75;4921250;28;20027;-31
2022/04/25 03:52:00;;;;;;;1.10;0.90;;;;;;;26.75;29.95;95039.75;4921563;28;20528;-30
2022/04/25 03:57:10;;;;;;;1.17;0.93;;;;;;;26.75;29.95;95039.75;4919097;28;20046;-31
2022/04/25 03:59:35;;;;;;;1.25;0.90;;;;;;;26.75;29.95;95039.75;4919235;28;20043;-28
2022/04/25 04:02:01;;;;;;;1.13;0.88;;;;;;;26.75;29.95;95039.75;4922241;28;20031;-32
2022/04/25 04:04:26;;;;;;;1.13;1.02;;;;;;;-148.56;29.95;95039.75;4923203;28;20030;-31
2022/04/25 04:06:51;;;;;;;1.17;0.82;;;;;;;-148.56;29.95;95039.75;4924881;28;20078;-29
2022/04/25 04:12:00;;;;;;;2.10;0.82;;;;;;;26.75;29.95;95039.75;4926480;28;20035;-31
2022/04/25 04:14:26;;;;;;;1.00;0.90;;;;;;;26.75;29.95;95039.75;4925040;28;20034;-34
2022/04/25 04:16:51;;;;;;;1.08;0.80;;;;;;;26.75;29.95;95039.75;4925251;28;20569;-29
2022/04/25 04:19:16;;;;;;;0.90;0.90;;;;;;;26.75;29.95;95039.75;4925325;28;20686;-30
2022/04/25 04:21:42;;;;;;;0.95;0.90;;;;;;;26.75;29.95;95039.75;4925430;28;20039;-32
2022/04/25 04:24:09;;;;;;;1.25;0.90;;;;;;;26.75;29.95;95039.75;4930947;28;20557;-32
2022/04/25 04:26:35;;;;;;;1.35;0.90;;;;;;;-148.56;29.95;95039.75;4931172;28;20035;-33
2022/04/25 04:29:01;;;;;;;1.48;1.00;;;;;;;-148.56;29.95;95039.75;4934223;28;20035;-31
2022/04/25 04:31:26;;;;;;;1.75;1.00;;;;;;;26.75;29.95;95039.75;4932609;28;20038;-32
2022/04/25 04:33:51;;;;;;;1.77;0.98;;;;;;;26.75;29.95;95039.75;4929511;28;20672;-30
2022/04/25 04:36:22;;;;;;;1.60;1.02;;;;;;;-148.56;29.95;95039.75;4930252;28;20570;-33
2022/04/25 04:38:47;;;;;;;1.15;0.90;;;;;;;-148.56;29.95;95039.75;4930733;28;20035;-30
2022/04/25 04:41:13;;;;;;;1.17;1.00;;;;;;;26.75;29.95;95039.75;4932117;28;20098;-30
2022/04/25 04:43:38;;;;;;;0.93;0.82;;;;;;;26.75;29.95;95039.75;4931165;28;20517;-31
2022/04/25 04:46:04;;;;;;;1.75;1.00;;;;;;;26.75;29.95;95039.75;4933804;28;20113;-30
2022/04/25 04:48:29;;;;;;;1.08;0.75;;;;;;;26.75;29.95;95039.75;4929182;28;20114;-28
2022/04/25 04:50:55;;;;;;;1.88;0.95;;;;;;;26.75;29.95;95039.75;4931604;28;20032;-34
2022/04/25 04:53:21;;;;;;;1.63;0.90;;;;;;;26.75;29.95;95039.75;4928579;28;20038;-35
2022/04/25 04:55:47;;;;;;;2.35;0.80;;;;;;;26.75;29.95;95039.75;4929481;28;20087;-33
2022/04/25 04:58:12;;;;;;;1.10;0.90;;;;;;;26.75;29.95;95039.75;4932745;28;20031;-32
2022/04/25 05:00:37;;;;;;;0.80;0.80;;;;;;;26.75;29.95;95039.75;4934017;28;20038;-30
2022/04/25 05:03:03;;;;;;;1.48;1.20;;;;;;;26.75;29.95;95039.75;4932781;28;20900;-30
2022/04/25 05:05:28;;;;;;;1.40;0.98;;;;;;;26.75;29.95;95039.75;4928329;28;20043;-32
2022/04/25 05:07:54;;;;;;;1.05;0.95;;;;;;;26.75;29.95;95039.75;4929390;28;20027;-32
2022/04/25 05:10:19;;;;;;;1.50;1.00;;;;;;;26.75;29.95;95039.75;4930948;28;20629;-31
2022/04/25 05:12:52;;;;;;;0.85;0.85;;;;;;;26.75;29.95;95039.75;4931712;28;20027;-30
2022/04/25 05:15:18;;;;;;;1.73;0.80;;;;;;;26.75;29.95;95039.75;4928890;28;20035;-31
2022/04/25 05:17:44;;;;;;;1.83;1.20;;;;;;;26.75;29.95;95039.75;4927557;28;21025;-32
2022/04/25 05:20:11;;;;;;;1.00;0.90;;;;;;;26.75;29.95;95039.75;4930920;28;20525;-30
2022/04/25 05:22:41;;;;;;;2.67;2.30;;;;;;;26.75;29.95;95039.75;4926369;28;20089;-30
2022/04/25 05:25:07;;;;;;;1.98;1.25;;;;;;;-148.56;29.95;95039.75;4922758;28;20034;-33
2022/04/25 05:27:33;;;;;;;4.50;0.98;;;;;;;-148.56;29.95;95039.75;4925925;28;20186;-32
2022/04/25 05:29:59;;;;;;;1.30;1.13;;;;;;;26.75;29.95;95039.75;4925965;28;20158;-30
2022/04/25 05:32:24;;;;;;;1.13;0.93;;;;;;;-148.56;29.95;95039.75;4919889;28;20774;-32
2022/04/25 05:34:49;;;;;;;0.80;0.80;;;;;;;26.75;29.95;95039.75;4919363;28;20032;-30
2022/04/25 05:37:15;;;;;;;2.22;1.10;;;;;;;26.75;29.95;95039.75;4922722;28;20082;-34
2022/04/25 05:39:40;;;;;;;1.70;0.82;;;;;;;-148.56;29.95;69680.19;4922823;28;20039;-30
2022/04/25 05:42:07;;;;;;;1.45;0.98;;;;;;;26.75;29.95;95039.75;4922175;28;20034;-31
2022/04/25 05:44:33;;;;;;;0.90;0.90;;;;;;;-148.56;29.95;69680.19;4919824;28;20713;-31
2022/04/25 05:46:58;;;;;;;2.53;1.20;;;;;;;26.75;29.95;95039.75;4937260;28;20445;-31
2022/04/25 05:52:08;;;;;;;4.10;1.10;;;;;;;-148.56;29.95;95039.75;4924190;28;21004;-32
2022/04/25 05:54:34;;;;;;;1.45;0.93;;;;;;;26.75;29.95;95039.75;4936731;28;20031;-35
2022/04/25 05:57:00;;;;;;;0.85;0.70;;;;;;;26.75;29.95;95039.75;4926933;28;20539;-32
2022/04/25 05:59:27;;;;;;;1.38;0.95;;;;;;;-148.56;29.95;95039.75;4925167;28;20442;-34
2022/04/25 06:01:53;;;;;;;1.42;0.90;;;;;;;-148.56;29.95;69680.19;4923475;28;20569;-31
2022/04/25 06:04:19;;;;;;;1.20;1.10;;;;;;;-148.56;29.95;69680.19;4926041;28;20027;-31
2022/04/25 06:06:44;;;;;;;3.08;1.02;;;;;;;26.75;29.95;95039.75;4923592;28;20031;-30
2022/04/25 06:09:10;;;;;;;1.08;0.90;;;;;;;-148.56;29.95;69680.19;4923161;28;20031;-31
2022/04/25 06:11:35;;;;;;;1.40;0.98;;;;;;;26.75;29.95;95039.75;4921669;28;20035;-32
2022/04/25 06:14:02;;;;;;;1.15;1.00;;;;;;;-148.56;29.95;95039.75;4923083;28;20648;-33
2022/04/25 06:16:27;;;;;;;20.75;2.88;;;;;;;26.75;29.95;95039.75;4924846;28;20039;-30
2022/04/25 06:18:53;;;;;;;9.60;2.50;;;;;;;26.75;29.95;95039.75;4925463;28;20039;-35
2022/04/25 06:21:18;;;;;;;8.55;1.98;;;;;;;26.75;29.95;95039.75;4926203;28;20039;-30
2022/04/25 06:23:44;;;;;;;11.65;3.10;;;;;;;26.75;29.95;95039.75;4922532;28;20035;-29
2022/04/25 06:26:09;;;;;;;9.18;3.22;;;;;;;26.75;29.95;95039.75;4920679;28;20027;-33
2022/04/25 06:28:34;;;;;;;12.50;3.17;;;;;;;26.75;29.95;95039.75;4922823;28;20039;-33
2022/04/25 06:31:00;;;;;;;8.13;3.33;;;;;;;26.75;29.95;95039.75;4923450;28;20085;-32
2022/04/25 06:33:26;;;;;;;21.60;3.30;;;;;;;-148.56;29.95;61375.16;4928152;28;20031;-30
2022/04/25 06:35:51;;;;;;;9.45;3.40;;;;;;;26.75;29.95;95039.75;4923427;28;20035;-33
2022/04/25 06:38:18;;;;;;;13.98;3.63;;;;;;;26.75;29.95;95039.75;4925442;28;20028;-31
2022/04/25 06:40:44;;;;;;;11.00;3.60;;;;;;;26.75;29.95;95039.75;4921608;28;20162;-31
2022/04/25 06:43:10;;;;;;;9.18;3.85;;;;;;;26.75;29.95;95039.75;4918506;28;20165;-33
2022/04/25 06:45:36;;;;;;;9.52;4.25;;;;;;;26.75;29.95;95039.75;4919783;28;20031;-32
2022/04/25 06:48:01;;;;;;;12.18;4.50;;;;;;;-148.56;29.95;95039.75;4922783;28;20042;-31
2022/04/25 06:50:26;;;;;;;9.45;4.03;;;;;;;26.75;29.95;95039.75;4923063;28;20095;-30
2022/04/25 06:52:52;;;;;;;7.10;3.45;;;;;;;26.75;29.95;95039.75;4923844;28;20027;-32
2022/04/25 06:55:19;;;;;;;8.63;3.40;;;;;;;26.75;29.95;95039.75;4922466;28;20063;-32
2022/04/25 06:57:44;;;;;;;10.27;3.72;;;;;;;26.75;29.95;95039.75;4923510;28;20035;-34
2022/04/25 07:00:11;;;;;;;11.23;4.20;;;;;;;26.75;29.95;95039.75;4920542;28;20042;-29
2022/04/25 07:02:37;;;;;;;9.32;3.55;;;;;;;26.75;29.95;95039.75;4926017;28;20019;-34
2022/04/25 07:05:04;;;;;;;11.77;3.95;;;;;;;26.75;29.95;95039.75;4936871;28;21703;-30
2022/04/25 07:07:30;;;;;;;12.60;3.85;;;;;;;-148.56;29.95;95039.75;4918954;28;20054;-32
2022/04/25 07:09:56;;;;;;;14.57;4.30;;;;;;;26.75;29.95;95039.75;4922054;28;20122;-32
2022/04/25 07:12:21;;;;;;;12.57;3.78;;;;;;;-148.56;29.95;95039.75;4923204;28;21108;-33
2022/04/25 07:14:46;;;;;;;10.13;3.75;;;;;;;26.75;29.95;95039.75;4921870;28;20035;-33
2022/04/25 07:17:12;;;;;;;12.00;4.00;;;;;;;26.75;29.95;95039.75;4925387;28;20765;-35
2022/04/25 07:19:39;;;;;;;11.20;4.63;;;;;;;-148.56;29.95;95039.75;4922119;28;20059;-33
2022/04/25 07:30:21;;;;;;;31.20;8.35;;;;;;;26.75;29.95;95039.75;4920190;28;20086;-33
2022/04/25 07:32:46;;;;;;;28.13;7.35;;;;;;;26.75;29.95;95039.75;4920279;28;20082;-30
2022/04/25 07:35:12;;;;;;;25.27;7.10;;;;;;;26.75;29.95;95039.75;4924005;28;20109;-32
2022/04/25 07:37:37;;;;;;;23.23;7.00;;;;;;;26.75;29.95;95039.75;4924850;28;20035;-32
2022/04/25 07:40:03;;;;;;;27.10;6.18;;;;;;;26.75;29.95;95039.75;4924045;28;20035;-33
2022/04/25 07:42:33;;;;;;;18.75;5.57;;;;;;;26.75;29.95;95039.75;4927365;28;20494;-30
2022/04/25 07:44:58;;;;;;;27.35;6.85;;;;;;;26.75;29.95;95039.75;4925509;28;20043;-32
2022/04/25 07:47:24;;;;;;;20.15;5.38;;;;;;;26.75;29.95;95039.75;4924332;28;20024;-30
2022/04/25 07:49:50;;;;;;;15.95;5.32;;;;;;;-148.56;29.95;69680.19;4926951;28;20043;-31
2022/04/25 07:52:16;;;;;;;16.60;5.78;;;;;;;-148.56;100.00;61375.16;4925447;28;20142;-30
2022/04/25 07:54:41;;;;;;;15.70;5.13;;;;;;;-148.56;100.00;61375.16;4938086;28;20034;-30
2022/04/25 07:57:06;;;;;;;20.10;5.57;;;;;;;-148.56;100.00;61375.16;4924166;28;20714;-31
2022/04/25 07:59:33;;;;;;;19.13;5.15;;;;;;;-148.56;100.00;61375.16;4925946;28;20067;-30
2022/04/25 08:01:59;;;;;;;15.30;4.97;;;;;;;-148.56;100.00;61375.16;4924120;28;20035;-30
2022/04/25 08:04:24;;;;;;;16.08;5.15;;;;;;;-148.56;100.00;61375.16;4925201;28;20458;-31
2022/04/25 08:06:50;;;;;;;13.93;4.40;;;;;;;-148.56;100.00;61375.16;4926569;28;20058;-31
2022/04/25 08:09:16;;;;;;;10.07;7.85;;;;;;;-148.56;100.00;61375.16;4930091;28;20027;-31
2022/04/25 08:11:42;;;;;;;11.10;7.82;;;;;;;-148.56;100.00;61375.16;4928345;28;20196;-28
2022/04/25 08:19:35;;;;;;;7.72;6.90;;;;;;;-148.56;100.00;61375.16;4921251;28;20050;-32
2022/04/25 08:22:00;;;;;;;8.50;5.93;;;;;;;-148.56;100.00;61375.16;4926166;28;20156;-29
2022/04/25 08:24:26;;;;;;;7.93;5.32;;;;;;;-148.56;100.00;61375.16;4927642;28;20064;-31
2022/04/25 08:26:53;;;;;;;8.00;4.97;;;;;;;-148.56;100.00;61375.16;4917235;28;20054;-29
2022/04/25 08:29:19;;;;;;;7.35;4.70;;;;;;;-148.56;100.00;61375.16;4924473;28;20178;-30
2022/04/25 08:31:44;;;;;;;5.97;4.43;;;;;;;-148.56;100.00;61375.16;4923203;28;20039;-30
2022/04/25 08:34:10;;;;;;;8.20;4.85;;;;;;;-148.56;100.00;61375.16;4920831;28;20997;-31
2022/04/25 08:36:35;;;;;;;13.68;4.47;;;;;;;-148.56;100.00;61375.16;4926279;28;20074;-33
2022/04/25 08:39:01;;;;;;;6.97;4.18;;;;;;;-148.56;100.00;61375.16;4927904;28;20643;-30
2022/04/25 08:41:30;;;;;;;7.80;4.30;;;;;;;-148.56;100.00;61375.16;4942260;28;20035;-31
2022/04/25 08:43:56;;;;;;;7.07;4.15;;;;;;;-148.56;100.00;61375.16;4932230;28;20031;-31
2022/04/25 08:46:22;;;;;;;5.72;3.90;;;;;;;-148.56;100.00;61375.16;4931184;28;20050;-31
2022/04/25 08:48:50;;;;;;;4.82;3.78;;;;;;;-148.56;100.00;61375.16;4932145;28;20039;-30
2022/04/25 08:51:16;;;;;;;6.40;3.33;;;;;;;-148.56;100.00;61375.16;4927838;28;20031;-31
2022/04/25 08:53:42;;;;;;;7.35;3.40;;;;;;;-148.56;100.00;61375.16;4938123;28;22935;-30
2022/04/25 08:56:08;;;;;;;4.75;3.40;;;;;;;-148.56;100.00;61375.16;4930070;28;20090;-32
2022/04/25 08:58:36;;;;;;;17.98;4.45;;;;;;;-148.56;100.00;61375.16;4944696;28;20755;-29
2022/04/25 09:01:01;;;;;;;6.65;3.72;;;;;;;-148.56;100.00;61375.16;4928052;28;20036;-28
2022/04/25 09:03:27;;;;;;;4.65;3.60;;;;;;;-148.56;100.00;61375.16;4931035;28;20087;-30
2022/04/25 09:05:52;;;;;;;5.95;3.92;;;;;;;-148.56;100.00;61375.16;4929069;28;20037;-30
2022/04/25 09:08:17;;;;;;;9.60;3.63;;;;;;;-148.56;100.00;61375.16;4927088;28;20042;-29
2022/04/25 09:10:46;;;;;;;4.97;3.10;;;;;;;-148.56;100.00;61375.16;4924247;28;20027;-30
2022/04/25 09:13:11;;;;;;;8.02;3.20;;;;;;;-148.56;100.00;61375.16;4925518;28;20027;-30
2022/04/25 09:15:37;;;;;;;5.47;3.35;;;;;;;-148.56;100.00;61375.16;4924247;28;20837;-32
2022/04/25 09:18:02;;;;;;;7.95;3.20;;;;;;;-148.56;100.00;61375.16;4940775;28;20034;-33
2022/04/25 09:20:28;;;;;;;9.38;3.50;;;;;;;-148.56;100.00;61375.16;4936937;28;20450;-27
2022/04/25 09:22:54;;;;;;;3.63;3.00;;;;;;;-148.56;100.00;61375.16;4922278;28;20637;-30
2022/04/25 09:25:19;;;;;;;7.25;3.03;;;;;;;-148.56;100.00;61375.16;4923028;28;20047;-30
2022/04/25 09:27:47;;;;;;;3.95;3.13;;;;;;;-148.56;100.00;61375.16;4928297;28;20035;-29
2022/04/25 09:30:15;;;;;;;5.90;3.05;;;;;;;-148.56;100.00;61375.16;4933427;28;20055;-32
2022/04/25 09:32:41;;;;;;;7.03;2.97;;;;;;;-148.56;100.00;61375.16;4932896;28;20031;-30
2022/04/25 09:35:24;;;;;;;7.18;3.00;;;;;;;-148.56;100.00;61375.16;4930875;28;20843;-32
2022/04/25 09:37:50;;;;;;;6.38;3.33;;;;;;;-148.56;100.00;61375.16;4931874;28;20039;-29
2022/04/25 09:40:19;;;;;;;4.15;2.78;;;;;;;-148.56;100.00;61375.16;4931075;28;20562;-29
2022/04/25 09:42:46;;;;;;;3.78;2.90;;;;;;;-148.56;100.00;61375.16;4943908;28;20067;-29
2022/04/25 09:45:11;;;;;;;4.40;2.72;;;;;;;-148.56;100.00;61375.16;4925037;28;20062;-29
2022/04/25 09:47:37;;;;;;;5.80;2.72;;;;;;;-148.56;100.00;61375.16;4921796;28;20601;-33
2022/04/25 09:50:10;;;;;;;7.25;2.83;;;;;;;-148.56;100.00;61375.16;4924794;28;20146;-27
2022/04/25 09:52:50;;;;;;;4.43;2.90;;;;;;;-148.56;100.00;61375.16;4925279;28;20030;-30
2022/04/25 09:55:15;;;;;;;3.55;2.53;;;;;;;-148.56;100.00;61375.16;4924400;28;20467;-29
2022/04/25 09:57:41;;;;;;;3.97;2.83;;;;;;;-148.56;100.00;61375.16;4925668;28;20035;-29
2022/04/25 10:00:07;;;;;;;7.18;3.13;;;;;;;-148.56;100.00;61375.16;4925303;28;20866;-33
2022/04/25 10:02:37;;;;;;;7.13;2.97;;;;;;;-148.56;100.00;61375.16;4925032;28;20058;-30
2022/04/25 10:05:18;;;;;;;5.65;2.95;;;;;;;-148.56;100.00;61375.16;4922047;28;20652;-30
2022/04/25 10:07:43;;;;;;;4.23;2.60;;;;;;;-148.56;100.00;61375.16;4923962;28;20466;-32
2022/04/25 10:10:10;;;;;;;6.75;3.20;;;;;;;-148.56;100.00;61375.16;4924024;28;20109;-31
2022/04/25 10:12:36;;;;;;;4.00;2.70;;;;;;;-148.56;100.00;61375.16;4926334;28;20094;-29
2022/04/25 10:15:03;;;;;;;4.47;2.70;;;;;;;-148.56;100.00;61375.16;4924009;28;20024;-30
2022/04/25 10:17:28;;;;;;;3.97;2.47;;;;;;;-148.56;100.00;61375.16;4925134;28;20032;-28
2022/04/25 10:19:55;;;;;;;6.00;2.60;;;;;;;-148.56;100.00;61375.16;4924684;28;20095;-31
2022/04/25 10:22:21;;;;;;;2.63;2.33;;;;;;;-148.56;100.00;61375.16;4920351;28;20032;-29
2022/04/25 10:24:46;;;;;;;3.40;2.35;;;;;;;-148.56;100.00;61375.16;4918814;28;20070;-32
2022/04/25 10:27:13;;;;;;;4.47;2.78;;;;;;;-148.56;100.00;61375.16;4920713;28;20071;-33
2022/04/25 10:29:39;;;;;;;3.92;2.50;;;;;;;-148.56;100.00;61375.16;4924407;28;20510;-32
2022/04/25 10:32:08;;;;;;;5.35;2.65;;;;;;;-148.56;100.00;61375.16;4937833;28;20516;-30
2022/04/25 10:34:47;;;;;;;5.00;2.55;;;;;;;-148.56;100.00;61375.16;4921390;28;20609;-31
2022/04/25 10:37:33;;;;;;;4.03;2.60;;;;;;;-148.56;100.00;61375.16;4923101;28;20044;-30
2022/04/25 10:40:00;;;;;;;3.53;2.22;;;;;;;-148.56;100.00;61375.16;4922919;28;20040;-31
2022/04/25 10:45:09;;;;;;;4.65;2.65;;;;;;;-148.56;100.00;61375.16;4924973;28;20690;-30
2022/04/25 10:47:35;;;;;;;3.33;2.35;;;;;;;-148.56;100.00;61375.16;4921354;28;20023;-31
2022/04/25 10:50:02;;;;;;;2.60;2.30;;;;;;;-148.56;100.00;61375.16;4924462;28;21397;-30
2022/04/25 10:52:37;;;;;;;3.78;2.70;;;;;;;-148.56;100.00;61375.16;4920533;28;20039;-30
2022/04/25 10:55:29;;;;;;;2.83;2.22;;;;;;;-148.56;100.00;61375.16;4924657;28;20504;-28
2022/04/25 10:58:04;;;;;;;3.05;2.47;;;;;;;-148.56;100.00;61375.16;4925226;28;20042;-34
2022/04/25 11:00:45;;;;;;;3.50;2.50;;;;;;;-148.56;100.00;61375.16;4924412;28;20406;-30
2022/04/25 11:03:14;;;;;;;2.87;2.27;;;;;;;-148.56;100.00;61375.16;4922044;28;20054;-32
2022/04/25 11:05:47;;;;;;;2.90;2.10;;;;;;;-148.56;100.00;61375.16;4923130;28;20289;-32
2022/04/25 11:08:15;;;;;;;2.88;1.95;;;;;;;-148.56;100.00;61375.16;4922083;28;20031;-33
2022/04/25 11:10:47;;;;;;;3.38;2.30;;;;;;;-148.56;100.00;61375.16;4923615;28;20031;-30
2022/04/25 11:13:13;;;;;;;3.63;2.35;;;;;;;-148.56;100.00;61375.16;4923949;28;20514;-31
2022/04/25 11:15:39;;;;;;;4.00;2.63;;;;;;;-148.56;100.00;61375.16;4920668;28;20039;-29
2022/04/25 11:20:55;;;;;;;3.00;2.30;;;;;;;-148.56;100.00;61375.16;4922494;28;20042;-29
2022/04/25 11:23:26;;;;;;;2.22;2.00;;;;;;;-148.56;100.00;61375.16;4922900;28;20872;-30
2022/04/25 11:25:55;;;;;;;2.88;2.00;;;;;;;-148.56;100.00;61375.16;4921987;28;20027;-31
2022/04/25 11:28:21;;;;;;;5.93;2.10;;;;;;;-148.56;100.00;61375.16;4922859;28;20042;-27
2022/04/25 11:31:12;;;;;;;3.65;2.05;;;;;;;-148.56;100.00;61375.16;4924026;28;20039;-34
2022/04/25 11:33:45;;;;;;;4.53;2.03;;;;;;;-148.56;100.00;61375.16;4920051;28;20159;-32
2022/04/25 11:36:11;;;;;;;2.65;2.10;;;;;;;-148.56;100.00;61375.16;4919844;28;20094;-33
2022/04/25 11:41:22;;;;;;;2.95;2.00;;;;;;;-148.56;100.00;61375.16;4920601;28;20105;-31
2022/04/25 11:43:47;;;;;;;2.08;1.77;;;;;;;-148.56;100.00;61375.16;4921038;28;20027;-32
2022/04/25 11:46:13;;;;;;;2.42;1.98;;;;;;;-148.56;100.00;61375.16;4921776;28;20047;-30
2022/04/25 11:48:39;;;;;;;3.05;1.77;;;;;;;-148.56;100.00;61375.16;4937283;28;20047;-30
2022/04/25 11:51:04;;;;;;;2.05;1.85;;;;;;;-148.56;100.00;61375.16;4920634;28;20032;-33
2022/04/25 11:53:31;;;;;;;2.20;1.92;;;;;;;-148.56;100.00;61375.16;4917985;28;20078;-32
2022/04/25 11:55:56;;;;;;;2.63;1.98;;;;;;;-148.56;100.00;61375.16;4913226;28;20899;-31
2022/04/25 11:58:28;;;;;;;2.95;2.05;;;;;;;-148.56;100.00;61375.16;4931073;28;20079;-32
2022/04/25 12:00:54;;;;;;;2.33;1.80;;;;;;;-148.56;100.00;61375.16;4918868;28;20031;-32